Bethesda, Ohio
Current Conditions -  °F | °C
As of 8:53 PM on Monday 20 Oct 2014 (Local Time) from KHLG Reporting Station
Light Rain Light Rain  
Wind Chill: 51°   Ceiling: 6000
Heat Index: 51°   Visibility: 10mi
Dew Point: 45°   Wind: 8mph
Humidity: 80%   Direction: 200°SSW
Pressure: 29.89"   Gusts: NA
Location:  40.02°N, 81.07°W
Report Text: KHLG 210053Z 20007KT 10SM -RA FEW043 BKN060 OVC100 11/07 A2989 RMK AO2 SLP127 P0001 T01060072
Loading
Personal Weather Stations






























Interactive Weather Map
Tropical Storm Tracking
New forecast layout! Learn more

10-Day Weather Forecast

Advertisements
Track Severe Weather on mobile